This is the latest recevied weather packets stored in our database for station/object F4ETJ-1. If no packets are shown the sender has not sent any weather packets the latest 10 day(s).
| Time | Temp. | Humidity | Pressure | Rain* | Wind** | Luminosity | Snow |
|---|---|---|---|---|---|---|---|
| 1777998574 | 16.11° C | 71% | 1008.2 hPa | 0 mm | - | - | - |
| 1777998213 | 16.11° C | 69% | 1008.2 hPa | 0 mm | - | - | - |
| 1777996053 | 16.67° C | 69% | 1008.2 hPa | 0 mm | - | - | - |
| 1777995332 | 16.11° C | 70% | 1008.3 hPa | 0 mm | - | - | - |
| 1777994972 | 16.67° C | 68% | 1008.2 hPa | 0 mm | - | - | - |
| 1777994610 | 17.22° C | 68% | 1008.2 hPa | 0 mm | - | - | - |
| 1777993168 | 16.67° C | 71% | 1008.1 hPa | 0 mm | - | - | - |
| 1777989927 | 16.67° C | 70% | 1008.2 hPa | 0 mm | - | - | - |
| 1777989564 | 17.22° C | 72% | 1008.2 hPa | 0 mm | - | - | - |
| 1777988844 | 17.78° C | 72% | 1008.3 hPa | 0 mm | - | - | - |
| 1777987764 | 17.22° C | 76% | 1008.3 hPa | 0 mm | - | - | - |
| 1777987042 | 16.11° C | 79% | 1008.4 hPa | 0.25 mm | - | - | - |
| 1777984160 | 15° C | 84% | 1008.7 hPa | 0.25 mm | - | - | - |
| 1777983800 | 15° C | 83% | 1008.6 hPa | 0.25 mm | - | - | - |
| 1777978034 | 16.67° C | 71% | 1008.5 hPa | 0 mm | - | - | - |
| 1777977674 | 16.67° C | 71% | 1008.5 hPa | 0 mm | - | - | - |
| 1777976955 | 16.67° C | 71% | 1008.4 hPa | 0 mm | - | - | - |
| 1777972630 | 16.67° C | 74% | 1008.5 hPa | 0 mm | - | - | - |
| 1777971910 | 16.11° C | 74% | 1008.4 hPa | 0 mm | - | - | - |
| 1777969026 | 16.67° C | 74% | 1008.5 hPa | 0 mm | - | - | - |
| 1777966144 | 15.56° C | 79% | 1008.6 hPa | 0 mm | - | - | - |
| 1777958219 | 11.67° C | 91% | 1008.8 hPa | 0 mm | - | - | - |
| 1777937042 | 12.78° C | 88% | 1009.9 hPa | 0 mm | - | - | - |
| 1777936680 | 12.78° C | 88% | 1009.8 hPa | 0 mm | - | - | - |
| 1777936322 | 12.78° C | 88% | 1009.8 hPa | 0 mm | - | - | - |
* Rain latest hour (hover to see other rain measurements)
** Current wind speed in m/s (hover to see current wind gust speed)